createdAt,value
2018-06-17T00:00:40.913Z,100379.48
2018-06-17T00:03:08.844Z,100383.63
2018-06-17T00:05:36.753Z,100381.48
2018-06-17T00:08:05.188Z,100389.86
2018-06-17T00:10:33.080Z,100389.48
2018-06-17T00:13:00.977Z,100385.45
2018-06-17T00:15:32.555Z,100399.19
2018-06-17T00:18:00.437Z,100392.45
2018-06-17T00:20:28.337Z,100385.50
2018-06-17T00:22:56.209Z,100389.59
2018-06-17T00:25:24.121Z,100390.43
2018-06-17T00:27:52.012Z,100387.81
2018-06-17T00:30:19.836Z,100400.23
2018-06-17T00:32:47.768Z,100397.20
2018-06-17T00:35:15.611Z,100404.82
2018-06-17T00:37:43.517Z,100400.97
2018-06-17T00:40:11.433Z,100403.91
2018-06-17T00:42:40.033Z,100403.44
2018-06-17T00:45:07.973Z,100398.45
2018-06-17T00:47:35.877Z,100402.16
2018-06-17T00:50:04.262Z,100402.24
2018-06-17T00:52:32.427Z,100403.78
2018-06-17T00:55:01.472Z,100402.61
2018-06-17T00:57:42.943Z,100419.25
2018-06-17T01:00:10.814Z,100419.16
2018-06-17T01:02:38.683Z,100422.52
2018-06-17T01:05:06.621Z,100423.34
2018-06-17T01:07:34.523Z,100418.38
2018-06-17T01:10:06.560Z,100419.45
2018-06-17T01:12:39.729Z,100412.27
2018-06-17T01:15:11.643Z,100418.29
2018-06-17T01:17:39.626Z,100423.62
2018-06-17T01:20:08.626Z,100429.72
2018-06-17T01:22:36.999Z,100428.11
2018-06-17T01:25:04.981Z,100422.23
2018-06-17T01:27:33.012Z,100420.92
2018-06-17T01:30:01.012Z,100422.78
2018-06-17T01:32:28.972Z,100418.30
2018-06-17T01:34:56.836Z,100422.36
2018-06-17T01:37:24.685Z,100418.25
2018-06-17T01:39:53.562Z,100429.45
2018-06-17T01:42:21.480Z,100428.33
2018-06-17T01:44:49.325Z,100430.84
2018-06-17T01:47:17.220Z,100439.70
2018-06-17T01:49:45.047Z,100448.36
2018-06-17T01:52:12.921Z,100451.39
2018-06-17T01:54:40.808Z,100448.39
2018-06-17T01:57:08.729Z,100444.98
2018-06-17T01:59:39.692Z,100451.50
2018-06-17T02:02:07.551Z,100449.36
2018-06-17T02:04:41.170Z,100452.88
2018-06-17T02:07:14.680Z,100455.66
2018-06-17T02:09:48.132Z,100447.75
2018-06-17T02:12:17.932Z,100443.92
2018-06-17T02:14:51.433Z,100442.47
2018-06-17T02:17:20.905Z,100438.88
2018-06-17T02:19:49.069Z,100438.32
2018-06-17T02:22:16.977Z,100446.13
2018-06-17T02:24:44.901Z,100440.33
2018-06-17T02:27:12.816Z,100446.10
2018-06-17T02:29:40.705Z,100450.81
2018-06-17T02:32:08.649Z,100461.59
2018-06-17T02:34:37.090Z,100464.03
2018-06-17T02:37:05.481Z,100464.92
2018-06-17T02:39:33.485Z,100468.48
2018-06-17T02:42:01.560Z,100467.13
2018-06-17T02:44:29.530Z,100470.72
2018-06-17T02:47:03.202Z,100468.31
2018-06-17T02:49:34.682Z,100471.55
2018-06-17T02:52:08.250Z,100469.40
2018-06-17T02:54:43.116Z,100474.87
2018-06-17T02:57:13.041Z,100479.09
2018-06-17T02:59:41.760Z,100480.70
2018-06-17T03:02:14.731Z,100479.88
2018-06-17T03:04:42.622Z,100472.70
2018-06-17T03:07:10.501Z,100476.26
2018-06-17T03:09:38.469Z,100476.32
2018-06-17T03:12:06.690Z,100482.18
2018-06-17T03:14:34.588Z,100487.98
2018-06-17T03:17:02.525Z,100484.66
2018-06-17T03:19:30.441Z,100476.61
2018-06-17T03:21:58.293Z,100483.86
2018-06-17T03:24:31.832Z,100480.56
2018-06-17T03:27:05.297Z,100476.73
2018-06-17T03:30:42.262Z,100493.35
2018-06-17T03:33:15.748Z,100498.63
2018-06-17T03:35:49.255Z,100502.22
2018-06-17T03:38:17.245Z,100496.97
2018-06-17T03:40:45.107Z,100494.49
2018-06-17T03:43:12.997Z,100496.95
2018-06-17T03:45:40.892Z,100503.86
2018-06-17T03:48:08.805Z,100508.02
2018-06-17T03:50:36.709Z,100512.70
2018-06-17T03:53:04.880Z,100512.95
2018-06-17T03:55:32.821Z,100521.52
2018-06-17T03:58:00.685Z,100521.22
2018-06-17T04:00:28.663Z,100514.57
2018-06-17T04:02:56.623Z,100516.45
2018-06-17T04:05:28.173Z,100523.05
2018-06-17T04:07:57.028Z,100526.05
2018-06-17T04:10:24.925Z,100516.90
2018-06-17T04:12:52.824Z,100518.28
2018-06-17T04:15:20.779Z,100522.94
2018-06-17T04:17:48.716Z,100526.53
2018-06-17T04:20:16.637Z,100526.82
2018-06-17T04:22:44.549Z,100525.37
2018-06-17T04:25:12.585Z,100527.25
2018-06-17T04:27:40.390Z,100525.50
2018-06-17T04:30:08.293Z,100528.27
2018-06-17T04:32:36.202Z,100528.77
2018-06-17T04:35:04.100Z,100532.02
2018-06-17T04:37:32.098Z,100532.50
2018-06-17T04:40:00.188Z,100534.38
2018-06-17T04:42:28.110Z,100530.95
2018-06-17T04:44:56.004Z,100534.16
2018-06-17T04:47:23.910Z,100542.17
2018-06-17T04:49:51.844Z,100539.63
2018-06-17T04:52:19.772Z,100550.11
2018-06-17T04:54:47.629Z,100552.02
2018-06-17T04:57:15.605Z,100559.23
2018-06-17T04:59:43.590Z,100558.63
2018-06-17T05:02:11.466Z,100563.67
2018-06-17T05:04:39.362Z,100557.08
2018-06-17T05:07:07.269Z,100570.68
2018-06-17T05:09:35.236Z,100570.42
2018-06-17T05:12:03.190Z,100566.39
2018-06-17T05:14:31.065Z,100571.84
2018-06-17T05:16:59.014Z,100564.77
2018-06-17T05:19:26.993Z,100567.05
2018-06-17T05:21:54.890Z,100565.22
2018-06-17T05:24:23.004Z,100566.23
2018-06-17T05:26:50.911Z,100562.29
2018-06-17T05:29:18.854Z,100569.69
2018-06-17T05:31:46.817Z,100570.39
2018-06-17T05:34:14.672Z,100576.63
2018-06-17T05:36:42.553Z,100575.73
2018-06-17T05:39:12.249Z,100580.56
2018-06-17T05:41:40.177Z,100577.59
2018-06-17T05:44:08.070Z,100576.58
2018-06-17T05:46:36.521Z,100584.45
2018-06-17T05:49:04.701Z,100579.50
2018-06-17T05:51:33.157Z,100583.43
2018-06-17T05:54:01.141Z,100582.67
2018-06-17T05:56:29.012Z,100584.19
2018-06-17T05:58:56.976Z,100591.97
2018-06-17T06:01:24.842Z,100589.20
2018-06-17T06:03:53.026Z,100591.20
2018-06-17T06:06:20.924Z,100596.61
2018-06-17T06:08:48.848Z,100593.88
2018-06-17T06:11:16.806Z,100595.63
2018-06-17T06:13:44.673Z,100592.67
2018-06-17T06:16:12.568Z,100596.06
2018-06-17T06:18:40.591Z,100596.47
2018-06-17T06:21:08.489Z,100598.81
2018-06-17T06:23:36.458Z,100605.56
2018-06-17T06:26:04.398Z,100605.34
2018-06-17T06:28:32.373Z,100598.27
2018-06-17T06:31:00.872Z,100593.60
2018-06-17T06:33:28.792Z,100600.08
2018-06-17T06:35:56.673Z,100607.20
2018-06-17T06:38:24.613Z,100598.54
2018-06-17T06:40:52.485Z,100601.58
2018-06-17T06:43:20.327Z,100605.56
2018-06-17T06:45:48.228Z,100613.05
2018-06-17T06:48:17.030Z,100621.48
2018-06-17T06:50:44.988Z,100610.96
2018-06-17T06:53:12.936Z,100620.54
2018-06-17T06:55:40.833Z,100619.39
2018-06-17T06:58:08.694Z,100619.86
2018-06-17T07:00:36.573Z,100622.08
2018-06-17T07:03:21.765Z,100611.50
2018-06-17T07:06:06.934Z,100622.86
2018-06-17T07:08:52.224Z,100621.66
2018-06-17T07:11:20.083Z,100620.02
2018-06-17T07:13:47.932Z,100621.67
2018-06-17T07:16:33.023Z,100617.30
2018-06-17T07:19:01.602Z,100624.88
2018-06-17T07:21:29.553Z,100623.77
2018-06-17T07:23:57.458Z,100622.39
2018-06-17T07:26:46.082Z,100627.47
2018-06-17T07:29:35.622Z,100627.55
2018-06-17T07:32:03.552Z,100628.06
2018-06-17T07:34:31.563Z,100629.98
2018-06-17T07:36:59.425Z,100627.31
2018-06-17T07:41:36.975Z,100624.19
2018-06-17T07:44:05.046Z,100625.87
2018-06-17T07:46:33.017Z,100629.89
2018-06-17T07:49:45.290Z,100630.10
2018-06-17T07:52:31.916Z,100630.94
2018-06-17T07:54:59.833Z,100622.06
2018-06-17T07:57:28.913Z,100624.02
2018-06-17T07:59:56.857Z,100624.00
2018-06-17T08:02:24.737Z,100620.58
2018-06-17T08:04:52.733Z,100616.97
2018-06-17T08:07:20.877Z,100618.07
2018-06-17T08:09:48.893Z,100621.47
2018-06-17T08:12:16.929Z,100613.42
2018-06-17T08:14:45.138Z,100615.88
2018-06-17T08:17:12.998Z,100618.19
2018-06-17T08:19:41.307Z,100616.55
2018-06-17T08:22:09.232Z,100610.55
2018-06-17T08:24:37.484Z,100610.36
2018-06-17T08:27:05.353Z,100610.20
2018-06-17T08:29:33.304Z,100612.92
2018-06-17T08:32:01.320Z,100600.65
2018-06-17T08:34:29.222Z,100603.05
2018-06-17T08:36:57.153Z,100604.98
2018-06-17T08:39:25.501Z,100614.77
2018-06-17T08:41:53.546Z,100615.42
2018-06-17T08:44:21.880Z,100620.57
2018-06-17T08:46:50.259Z,100610.49
2018-06-17T08:49:18.904Z,100606.33
2018-06-17T08:51:46.914Z,100611.25
2018-06-17T08:54:16.042Z,100606.53
2018-06-17T08:56:44.045Z,100602.86
2018-06-17T08:59:12.501Z,100604.27
2018-06-17T09:01:41.583Z,100612.08
2018-06-17T09:04:10.003Z,100605.95
2018-06-17T09:06:38.595Z,100599.77
2018-06-17T09:09:09.741Z,100610.23
2018-06-17T09:11:37.715Z,100625.25
2018-06-17T09:14:05.809Z,100617.62
2018-06-17T09:16:33.810Z,100616.47
2018-06-17T09:19:02.829Z,100613.87
2018-06-17T09:21:31.506Z,100613.25
2018-06-17T09:23:59.984Z,100618.46
2018-06-17T09:26:28.111Z,100610.30
2018-06-17T09:28:56.175Z,100613.98
2018-06-17T09:31:24.197Z,100606.77
2018-06-17T09:33:52.593Z,100605.60
2018-06-17T09:36:21.443Z,100605.97
2018-06-17T09:38:49.371Z,100604.88
2018-06-17T09:41:17.443Z,100611.15
2018-06-17T09:43:45.510Z,100609.75
2018-06-17T09:46:13.484Z,100603.80
2018-06-17T09:48:42.240Z,100600.13
2018-06-17T09:51:10.766Z,100592.36
2018-06-17T09:53:38.656Z,100601.04
2018-06-17T09:56:06.580Z,100598.45
2018-06-17T09:58:34.555Z,100601.28
2018-06-17T10:01:02.978Z,100598.27
2018-06-17T10:03:31.350Z,100602.07
2018-06-17T10:05:59.413Z,100603.02
2018-06-17T10:08:27.388Z,100609.52
2018-06-17T10:11:00.965Z,100608.21
2018-06-17T10:13:30.805Z,100603.31
2018-06-17T10:15:59.390Z,100606.61
2018-06-17T10:18:27.857Z,100605.19
2018-06-17T10:20:55.856Z,100593.84
2018-06-17T10:23:23.868Z,100597.89
2018-06-17T10:25:52.674Z,100590.57
2018-06-17T10:28:21.856Z,100596.98
2018-06-17T10:30:50.941Z,100599.00
2018-06-17T10:33:18.814Z,100596.68
2018-06-17T10:35:47.012Z,100598.21
2018-06-17T10:38:15.174Z,100597.05
2018-06-17T10:40:43.340Z,100595.89
2018-06-17T10:43:18.476Z,100598.11
2018-06-17T10:45:46.332Z,100594.45
2018-06-17T10:48:14.646Z,100594.48
2018-06-17T10:50:42.589Z,100584.84
2018-06-17T10:53:10.469Z,100587.62
2018-06-17T10:55:38.500Z,100592.79
2018-06-17T10:58:06.328Z,100590.00
2018-06-17T11:00:34.187Z,100586.45
2018-06-17T11:03:02.059Z,100588.83
2018-06-17T11:05:30.055Z,100593.06
2018-06-17T11:08:07.688Z,100588.03
2018-06-17T11:10:35.753Z,100580.30
2018-06-17T11:13:03.712Z,100576.56
2018-06-17T11:15:31.508Z,100579.44
2018-06-17T11:17:59.469Z,100573.28
2018-06-17T11:20:27.352Z,100566.81
2018-06-17T11:22:55.988Z,100570.30
2018-06-17T11:25:24.003Z,100570.10
2018-06-17T11:27:57.956Z,100571.59
2018-06-17T11:30:26.046Z,100564.32
2018-06-17T11:32:54.003Z,100563.81
2018-06-17T11:35:22.168Z,100552.00
2018-06-17T11:37:50.327Z,100563.34
2018-06-17T11:40:18.186Z,100560.52
2018-06-17T11:42:46.273Z,100560.05
2018-06-17T11:45:14.217Z,100561.50
2018-06-17T11:47:42.134Z,100561.84
2018-06-17T11:50:09.964Z,100576.09
2018-06-17T11:52:37.756Z,100562.78
2018-06-17T11:55:07.525Z,100562.55
2018-06-17T11:57:35.403Z,100570.53
2018-06-17T12:00:04.081Z,100577.29
2018-06-17T12:02:31.977Z,100568.74
2018-06-17T12:04:59.867Z,100569.72
2018-06-17T12:07:28.165Z,100574.39
2018-06-17T12:09:56.006Z,100573.30
2018-06-17T12:12:23.883Z,100573.30
2018-06-17T12:14:51.789Z,100569.13
2018-06-17T12:17:19.708Z,100571.88
2018-06-17T12:19:47.613Z,100572.03
2018-06-17T12:22:15.537Z,100562.01
2018-06-17T12:24:43.474Z,100573.31
2018-06-17T12:27:12.739Z,100566.37
2018-06-17T12:29:41.792Z,100557.31
2018-06-17T12:32:10.385Z,100565.10
2018-06-17T12:34:39.139Z,100561.21
2018-06-17T12:37:07.671Z,100556.00
2018-06-17T12:39:37.248Z,100564.92
2018-06-17T12:42:05.913Z,100560.18
2018-06-17T12:44:33.821Z,100565.69
2018-06-17T12:47:03.913Z,100561.08
2018-06-17T12:49:37.488Z,100564.42
2018-06-17T12:52:08.083Z,100559.53
2018-06-17T12:54:42.715Z,100569.49
2018-06-17T12:57:16.098Z,100556.50
2018-06-17T12:59:48.145Z,100559.70
2018-06-17T13:02:22.468Z,100557.60
2018-06-17T13:04:51.117Z,100556.12
2018-06-17T13:07:21.390Z,100549.80
2018-06-17T13:09:49.757Z,100547.66
2018-06-17T13:12:22.312Z,100551.13
2018-06-17T13:14:57.843Z,100550.70
2018-06-17T13:17:28.749Z,100544.26
2018-06-17T13:20:00.315Z,100540.75
2018-06-17T13:22:28.334Z,100544.09
2018-06-17T13:24:56.285Z,100553.27
2018-06-17T13:27:24.312Z,100549.39
2018-06-17T13:29:52.949Z,100557.03
2018-06-17T13:32:26.921Z,100563.50
2018-06-17T13:34:55.492Z,100554.70
2018-06-17T13:37:28.098Z,100554.44
2018-06-17T13:39:56.386Z,100556.36
2018-06-17T13:42:24.354Z,100562.25
2018-06-17T13:44:52.225Z,100561.80
2018-06-17T13:47:20.127Z,100557.66
2018-06-17T13:49:48.079Z,100557.42
2018-06-17T13:52:15.995Z,100559.97
2018-06-17T13:54:43.916Z,100562.45
2018-06-17T13:57:11.786Z,100567.00
2018-06-17T13:59:39.740Z,100556.73
2018-06-17T14:02:07.722Z,100557.59
2018-06-17T14:04:36.813Z,100555.61
2018-06-17T14:07:04.771Z,100555.37
2018-06-17T14:09:32.633Z,100558.34
2018-06-17T14:12:04.034Z,100565.45
2018-06-17T14:14:31.895Z,100558.66
2018-06-17T14:16:59.742Z,100563.63
2018-06-17T14:19:27.644Z,100567.45
2018-06-17T14:21:55.505Z,100562.98
2018-06-17T14:24:23.442Z,100563.19
2018-06-17T14:26:51.532Z,100552.63
2018-06-17T14:29:19.408Z,100556.42
2018-06-17T14:31:47.308Z,100557.26
2018-06-17T14:34:15.268Z,100566.30
2018-06-17T14:36:43.193Z,100561.86
2018-06-17T14:39:12.072Z,100562.09
2018-06-17T14:41:40.018Z,100557.25
2018-06-17T14:44:18.420Z,100561.22
2018-06-17T14:46:52.338Z,100568.48
2018-06-17T14:49:25.867Z,100567.15
2018-06-17T14:52:57.061Z,100570.06
2018-06-17T14:55:24.938Z,100562.67
2018-06-17T14:57:53.678Z,100568.66
2018-06-17T15:00:25.827Z,100557.51
2018-06-17T15:02:54.592Z,100565.48
2018-06-17T15:05:22.749Z,100572.13
2018-06-17T15:07:50.757Z,100572.36
2018-06-17T15:10:18.633Z,100562.83
2018-06-17T15:12:46.683Z,100567.50
2018-06-17T15:15:14.608Z,100560.61
2018-06-17T15:17:42.529Z,100571.25
2018-06-17T15:20:10.422Z,100565.71
2018-06-17T15:22:38.313Z,100555.78
2018-06-17T15:25:06.324Z,100556.95
2018-06-17T15:27:34.244Z,100546.74
2018-06-17T15:30:02.290Z,100554.34
2018-06-17T15:32:35.976Z,100560.94
2018-06-17T15:35:09.997Z,100558.81
2018-06-17T15:37:43.502Z,100567.34
2018-06-17T15:40:11.481Z,100557.28
2018-06-17T15:42:39.340Z,100560.45
2018-06-17T15:45:07.278Z,100561.97
2018-06-17T15:47:35.269Z,100558.69
2018-06-17T15:50:03.701Z,100557.18
2018-06-17T15:52:31.633Z,100555.64
2018-06-17T15:54:59.459Z,100558.09
2018-06-17T15:57:27.342Z,100558.70
2018-06-17T15:59:55.717Z,100563.47
2018-06-17T16:02:23.561Z,100567.44
2018-06-17T16:04:51.844Z,100571.67
2018-06-17T16:07:19.737Z,100572.84
2018-06-17T16:09:47.669Z,100570.28
2018-06-17T16:12:21.127Z,100581.50
2018-06-17T16:14:54.820Z,100577.03
2018-06-17T16:17:28.526Z,100583.48
2018-06-17T16:20:01.989Z,100582.04
2018-06-17T16:22:29.926Z,100585.34
2018-06-17T16:24:57.790Z,100586.11
2018-06-17T16:27:25.741Z,100591.38
2018-06-17T16:29:53.633Z,100595.06
2018-06-17T16:32:21.545Z,100600.29
2018-06-17T16:34:49.523Z,100619.87
2018-06-17T16:37:17.478Z,100615.16
2018-06-17T16:39:45.338Z,100610.70
2018-06-17T16:42:13.280Z,100611.44
2018-06-17T16:44:41.113Z,100612.20
2018-06-17T16:47:09.089Z,100608.85
2018-06-17T16:49:37.037Z,100611.16
2018-06-17T16:52:10.865Z,100604.47
2018-06-17T16:54:44.533Z,100603.70
2018-06-17T16:57:18.016Z,100602.50
2018-06-17T16:59:51.086Z,100609.84
2018-06-17T17:02:19.018Z,100617.77
2018-06-17T17:04:46.926Z,100617.06
2018-06-17T17:07:14.821Z,100616.52
2018-06-17T17:09:42.767Z,100616.87
2018-06-17T17:12:10.692Z,100610.72
2018-06-17T17:14:38.594Z,100614.35
2018-06-17T17:17:06.563Z,100610.88
2018-06-17T17:19:34.429Z,100621.26
2018-06-17T17:22:02.284Z,100616.98
2018-06-17T17:24:30.173Z,100623.30
2018-06-17T17:26:58.124Z,100633.15
2018-06-17T17:29:26.052Z,100635.29
2018-06-17T17:31:59.558Z,100632.91
2018-06-17T17:34:34.128Z,100634.75
2018-06-17T17:37:07.923Z,100640.33
2018-06-17T17:39:41.745Z,100639.39
2018-06-17T17:42:09.621Z,100636.75
2018-06-17T17:44:43.329Z,100644.84
2018-06-17T17:47:16.874Z,100644.93
2018-06-17T17:49:44.825Z,100644.44
2018-06-17T17:52:12.778Z,100645.09
2018-06-17T17:54:40.677Z,100650.97
2018-06-17T17:57:08.757Z,100644.16
2018-06-17T17:59:37.559Z,100645.84
2018-06-17T18:02:06.039Z,100654.05
2018-06-17T18:04:34.100Z,100652.33
2018-06-17T18:07:02.516Z,100654.42
2018-06-17T18:09:30.763Z,100654.83
2018-06-17T18:11:58.653Z,100657.41
2018-06-17T18:14:30.338Z,100659.01
2018-06-17T18:16:58.497Z,100663.69
2018-06-17T18:19:26.621Z,100672.95
2018-06-17T18:21:56.505Z,100679.19
2018-06-17T18:24:24.595Z,100672.09
2018-06-17T18:26:58.029Z,100684.80
2018-06-17T18:29:31.680Z,100685.62
2018-06-17T18:32:07.383Z,100693.60
2018-06-17T18:34:40.930Z,100696.05
2018-06-17T18:37:08.836Z,100698.65
2018-06-17T18:39:36.705Z,100701.73
2018-06-17T18:42:04.715Z,100699.33
2018-06-17T18:44:32.604Z,100696.47
2018-06-17T18:47:00.573Z,100705.52
2018-06-17T18:49:28.526Z,100704.86
2018-06-17T18:51:56.490Z,100700.86
2018-06-17T18:54:31.385Z,100706.61
2018-06-17T18:57:01.414Z,100710.22
2018-06-17T18:59:36.652Z,100704.34
2018-06-17T19:02:09.915Z,100712.91
2018-06-17T19:04:42.872Z,100708.50
2018-06-17T19:07:12.026Z,100715.16
2018-06-17T19:09:47.449Z,100719.08
2018-06-17T19:12:20.973Z,100721.59
2018-06-17T19:14:58.819Z,100724.95
2018-06-17T19:17:36.529Z,100720.45
2018-06-17T19:20:09.606Z,100728.63
2018-06-17T19:22:37.523Z,100735.47
2018-06-17T19:25:06.404Z,100734.34
2018-06-17T19:27:34.268Z,100739.27
2018-06-17T19:30:08.789Z,100737.00
2018-06-17T19:32:44.620Z,100736.00
2018-06-17T19:35:12.709Z,100744.38
2018-06-17T19:37:40.798Z,100747.00
2018-06-17T19:40:08.926Z,100746.69
2018-06-17T19:42:36.976Z,100746.88
2018-06-17T19:45:08.656Z,100752.70
2018-06-17T19:47:38.270Z,100755.53
2018-06-17T19:50:14.509Z,100756.67
2018-06-17T19:52:49.883Z,100760.04
2018-06-17T19:55:23.478Z,100765.96
2018-06-17T19:57:56.971Z,100767.17
2018-06-17T20:00:35.413Z,100766.35
2018-06-17T20:03:04.883Z,100769.23
2018-06-17T20:05:34.540Z,100772.03
2018-06-17T20:08:02.506Z,100775.02
2018-06-17T20:10:30.394Z,100777.84
2018-06-17T20:12:58.296Z,100772.83
2018-06-17T20:15:26.204Z,100772.98
2018-06-17T20:17:54.201Z,100770.01
2018-06-17T20:20:22.313Z,100758.83
2018-06-17T20:22:50.314Z,100755.63
2018-06-17T20:25:18.172Z,100759.84
2018-06-17T20:27:46.057Z,100762.78
2018-06-17T20:30:13.896Z,100757.97
2018-06-17T20:32:47.644Z,100764.04
2018-06-17T20:35:21.120Z,100774.06
2018-06-17T20:37:54.584Z,100783.95
2018-06-17T20:40:28.141Z,100789.80
2018-06-17T20:43:01.797Z,100799.25
2018-06-17T20:45:30.348Z,100810.37
2018-06-17T20:47:58.291Z,100806.31
2018-06-17T20:50:26.823Z,100812.38
2018-06-17T20:52:54.714Z,100820.26
2018-06-17T20:55:22.624Z,100822.20
2018-06-17T20:57:50.509Z,100821.14
2018-06-17T21:00:18.613Z,100832.73
2018-06-17T21:02:46.528Z,100840.55
2018-06-17T21:05:14.432Z,100843.63
2018-06-17T21:07:42.348Z,100856.13
2018-06-17T21:10:10.250Z,100847.23
2018-06-17T21:12:38.133Z,100853.05
2018-06-17T21:15:11.707Z,100854.00
2018-06-17T21:17:39.570Z,100858.41
2018-06-17T21:20:13.225Z,100860.60
2018-06-17T21:22:46.788Z,100861.69
2018-06-17T21:25:20.549Z,100868.09
2018-06-17T21:27:51.773Z,100873.38
2018-06-17T21:30:19.989Z,100868.95
2018-06-17T21:32:47.836Z,100880.31
2018-06-17T21:35:16.075Z,100888.37
2018-06-17T21:37:44.152Z,100888.36
2018-06-17T21:40:12.106Z,100891.69
2018-06-17T21:42:40.385Z,100892.22
2018-06-17T21:45:08.436Z,100894.46
2018-06-17T21:47:36.331Z,100894.47
2018-06-17T21:50:04.511Z,100892.58
2018-06-17T21:52:32.445Z,100892.30
2018-06-17T21:55:00.336Z,100890.35
2018-06-17T21:57:28.212Z,100888.97
2018-06-17T21:59:56.123Z,100886.22
2018-06-17T22:02:24.028Z,100887.59
2018-06-17T22:04:51.870Z,100900.06
2018-06-17T22:07:19.782Z,100901.19
2018-06-17T22:09:53.405Z,100900.08
2018-06-17T22:12:26.842Z,100899.80
2018-06-17T22:15:00.504Z,100901.77
2018-06-17T22:17:34.141Z,100905.11
2018-06-17T22:20:02.034Z,100904.28
2018-06-17T22:22:29.943Z,100905.09
2018-06-17T22:24:57.773Z,100915.05
2018-06-17T22:27:25.697Z,100912.30
2018-06-17T22:29:53.537Z,100907.87
2018-06-17T22:32:21.365Z,100912.05
2018-06-17T22:34:49.265Z,100912.03
2018-06-17T22:37:17.068Z,100913.97
2018-06-17T22:39:45.048Z,100921.44
2018-06-17T22:42:12.932Z,100921.72
2018-06-17T22:44:40.850Z,100920.55
2018-06-17T22:47:08.701Z,100919.41
2018-06-17T22:49:36.566Z,100925.27
2018-06-17T22:52:04.520Z,100921.37
2018-06-17T22:54:49.029Z,100925.78
2018-06-17T22:57:22.568Z,100927.95
2018-06-17T22:59:56.101Z,100921.58
2018-06-17T23:02:29.869Z,100928.99
2018-06-17T23:05:03.559Z,100922.88
2018-06-17T23:07:37.114Z,100922.30
2018-06-17T23:10:07.513Z,100928.87
2018-06-17T23:12:35.467Z,100934.26
2018-06-17T23:15:03.807Z,100936.70
2018-06-17T23:17:31.724Z,100932.24
2018-06-17T23:19:59.603Z,100927.86
2018-06-17T23:22:27.501Z,100924.52
2018-06-17T23:24:55.299Z,100928.09
2018-06-17T23:27:23.255Z,100934.64
2018-06-17T23:29:51.153Z,100938.45
2018-06-17T23:32:19.149Z,100940.89
2018-06-17T23:34:47.000Z,100941.27
2018-06-17T23:37:17.585Z,100945.14
2018-06-17T23:39:45.493Z,100948.45
2018-06-17T23:42:13.416Z,100957.98
2018-06-17T23:44:41.336Z,100959.69
2018-06-17T23:48:13.816Z,100962.03
2018-06-17T23:50:47.272Z,100956.38
2018-06-17T23:53:20.825Z,100953.36
2018-06-17T23:55:54.396Z,100958.58
2018-06-17T23:58:22.404Z,100958.04
